sensor_id;sensor_type;location;lat;lon;timestamp;pressure;altitude;pressure_sealevel;temperature;humidity
10484;BME280;5289;42.610;23.362;2022-07-21T00:01:22;91817.59;;;13.24;100.00
10484;BME280;5289;42.610;23.362;2022-07-21T00:03:48;91819.91;;;13.21;100.00
10484;BME280;5289;42.610;23.362;2022-07-21T00:06:15;91818.31;;;13.20;100.00
10484;BME280;5289;42.610;23.362;2022-07-21T00:08:41;91814.09;;;13.19;100.00
10484;BME280;5289;42.610;23.362;2022-07-21T00:11:08;91815.13;;;13.18;100.00
10484;BME280;5289;42.610;23.362;2022-07-21T00:13:34;91807.69;;;13.15;100.00
10484;BME280;5289;42.610;23.362;2022-07-21T00:16:01;91798.44;;;13.12;100.00
10484;BME280;5289;42.610;23.362;2022-07-21T00:18:29;91782.03;;;13.10;100.00
10484;BME280;5289;42.610;23.362;2022-07-21T00:20:55;91769.09;;;13.08;100.00
10484;BME280;5289;42.610;23.362;2022-07-21T00:23:22;91772.22;;;13.05;100.00
10484;BME280;5289;42.610;23.362;2022-07-21T00:25:49;91776.44;;;13.06;100.00
10484;BME280;5289;42.610;23.362;2022-07-21T00:28:15;91780.94;;;13.06;100.00
10484;BME280;5289;42.610;23.362;2022-07-21T00:30:42;91774.06;;;13.05;100.00
10484;BME280;5289;42.610;23.362;2022-07-21T00:33:08;91773.75;;;13.01;100.00
10484;BME280;5289;42.610;23.362;2022-07-21T00:35:36;91776.63;;;13.00;100.00
10484;BME280;5289;42.610;23.362;2022-07-21T00:38:03;91777.16;;;12.97;100.00
10484;BME280;5289;42.610;23.362;2022-07-21T00:40:30;91779.22;;;12.95;100.00
10484;BME280;5289;42.610;23.362;2022-07-21T00:42:56;91778.94;;;12.91;100.00
10484;BME280;5289;42.610;23.362;2022-07-21T00:45:23;91791.56;;;12.89;100.00
10484;BME280;5289;42.610;23.362;2022-07-21T00:47:50;91803.41;;;12.87;100.00
10484;BME280;5289;42.610;23.362;2022-07-21T00:50:17;91806.75;;;12.82;100.00
10484;BME280;5289;42.610;23.362;2022-07-21T00:52:46;91809.91;;;12.79;100.00
10484;BME280;5289;42.610;23.362;2022-07-21T00:55:14;91817.25;;;12.77;100.00
10484;BME280;5289;42.610;23.362;2022-07-21T00:57:41;91816.72;;;12.75;100.00
10484;BME280;5289;42.610;23.362;2022-07-21T01:00:09;91826.16;;;12.71;100.00
10484;BME280;5289;42.610;23.362;2022-07-21T01:02:36;91824.00;;;12.68;100.00
10484;BME280;5289;42.610;23.362;2022-07-21T01:05:02;91831.91;;;12.68;100.00
10484;BME280;5289;42.610;23.362;2022-07-21T01:07:29;91835.03;;;12.65;100.00
10484;BME280;5289;42.610;23.362;2022-07-21T01:09:57;91842.38;;;12.63;100.00
10484;BME280;5289;42.610;23.362;2022-07-21T01:12:23;91838.41;;;12.60;100.00
10484;BME280;5289;42.610;23.362;2022-07-21T01:14:50;91835.44;;;12.57;100.00
10484;BME280;5289;42.610;23.362;2022-07-21T01:17:17;91826.19;;;12.54;100.00
10484;BME280;5289;42.610;23.362;2022-07-21T01:19:44;91806.63;;;12.50;100.00
10484;BME280;5289;42.610;23.362;2022-07-21T01:22:12;91802.41;;;12.49;100.00
10484;BME280;5289;42.610;23.362;2022-07-21T01:24:39;91796.81;;;12.46;100.00
10484;BME280;5289;42.610;23.362;2022-07-21T01:27:05;91793.63;;;12.44;100.00
10484;BME280;5289;42.610;23.362;2022-07-21T01:29:32;91783.56;;;12.41;100.00
10484;BME280;5289;42.610;23.362;2022-07-21T01:31:58;91775.13;;;12.39;100.00
10484;BME280;5289;42.610;23.362;2022-07-21T01:34:25;91757.69;;;12.38;100.00
10484;BME280;5289;42.610;23.362;2022-07-21T01:36:51;91742.69;;;12.38;100.00
10484;BME280;5289;42.610;23.362;2022-07-21T01:39:19;91741.56;;;12.34;100.00
10484;BME280;5289;42.610;23.362;2022-07-21T01:42:04;91719.94;;;12.32;100.00
10484;BME280;5289;42.610;23.362;2022-07-21T01:44:30;91723.38;;;12.33;100.00
10484;BME280;5289;42.610;23.362;2022-07-21T01:46:57;91720.72;;;12.33;100.00
10484;BME280;5289;42.610;23.362;2022-07-21T01:49:23;91719.38;;;12.30;100.00
10484;BME280;5289;42.610;23.362;2022-07-21T01:51:50;91711.72;;;12.29;100.00
10484;BME280;5289;42.610;23.362;2022-07-21T01:54:16;91703.25;;;12.27;100.00
10484;BME280;5289;42.610;23.362;2022-07-21T01:56:44;91697.75;;;12.28;100.00
10484;BME280;5289;42.610;23.362;2022-07-21T01:59:11;91699.59;;;12.28;100.00
10484;BME280;5289;42.610;23.362;2022-07-21T02:01:37;91686.88;;;12.24;100.00
10484;BME280;5289;42.610;23.362;2022-07-21T02:04:04;91672.91;;;12.24;100.00
10484;BME280;5289;42.610;23.362;2022-07-21T02:06:31;91671.34;;;12.23;100.00
10484;BME280;5289;42.610;23.362;2022-07-21T02:08:58;91666.31;;;12.21;100.00
10484;BME280;5289;42.610;23.362;2022-07-21T02:11:24;91679.47;;;12.21;100.00
10484;BME280;5289;42.610;23.362;2022-07-21T02:13:52;91676.28;;;12.19;100.00
10484;BME280;5289;42.610;23.362;2022-07-21T02:16:19;91680.75;;;12.19;100.00
10484;BME280;5289;42.610;23.362;2022-07-21T02:18:45;91678.91;;;12.19;100.00
10484;BME280;5289;42.610;23.362;2022-07-21T02:21:12;91678.38;;;12.17;100.00
10484;BME280;5289;42.610;23.362;2022-07-21T02:23:38;91684.41;;;12.18;100.00
10484;BME280;5289;42.610;23.362;2022-07-21T02:26:05;91685.50;;;12.17;100.00
10484;BME280;5289;42.610;23.362;2022-07-21T02:28:32;91695.75;;;12.18;100.00
10484;BME280;5289;42.610;23.362;2022-07-21T02:30:59;91694.97;;;12.18;100.00
10484;BME280;5289;42.610;23.362;2022-07-21T02:33:26;91699.47;;;12.17;100.00
10484;BME280;5289;42.610;23.362;2022-07-21T02:35:53;91706.56;;;12.17;100.00
10484;BME280;5289;42.610;23.362;2022-07-21T02:38:19;91710.47;;;12.14;100.00
10484;BME280;5289;42.610;23.362;2022-07-21T02:40:46;91707.84;;;12.14;100.00
10484;BME280;5289;42.610;23.362;2022-07-21T02:43:12;91708.88;;;12.13;100.00
10484;BME280;5289;42.610;23.362;2022-07-21T02:45:38;91714.13;;;12.13;100.00
10484;BME280;5289;42.610;23.362;2022-07-21T02:48:09;91714.41;;;12.12;100.00
10484;BME280;5289;42.610;23.362;2022-07-21T02:50:39;91704.91;;;12.11;100.00
10484;BME280;5289;42.610;23.362;2022-07-21T02:53:07;91705.13;;;12.09;100.00
10484;BME280;5289;42.610;23.362;2022-07-21T02:55:34;91703.31;;;12.10;100.00
10484;BME280;5289;42.610;23.362;2022-07-21T02:58:05;91702.50;;;12.09;100.00
10484;BME280;5289;42.610;23.362;2022-07-21T03:00:32;91707.78;;;12.09;100.00
10484;BME280;5289;42.610;23.362;2022-07-21T03:02:58;91703.31;;;12.10;100.00
10484;BME280;5289;42.610;23.362;2022-07-21T03:05:26;91697.53;;;12.13;100.00
10484;BME280;5289;42.610;23.362;2022-07-21T03:07:52;91695.69;;;12.13;100.00
10484;BME280;5289;42.610;23.362;2022-07-21T03:10:19;91694.19;;;12.17;100.00
10484;BME280;5289;42.610;23.362;2022-07-21T03:12:45;91687.38;;;12.21;100.00
10484;BME280;5289;42.610;23.362;2022-07-21T03:15:12;91690.88;;;12.27;100.00
10484;BME280;5289;42.610;23.362;2022-07-21T03:17:39;91685.91;;;12.31;100.00
10484;BME280;5289;42.610;23.362;2022-07-21T03:20:05;91690.19;;;12.37;100.00
10484;BME280;5289;42.610;23.362;2022-07-21T03:22:34;91691.88;;;12.43;100.00
10484;BME280;5289;42.610;23.362;2022-07-21T03:25:00;91690.63;;;12.50;100.00
10484;BME280;5289;42.610;23.362;2022-07-21T03:27:27;91696.28;;;12.59;100.00
10484;BME280;5289;42.610;23.362;2022-07-21T03:29:53;91690.81;;;12.65;100.00
10484;BME280;5289;42.610;23.362;2022-07-21T03:32:20;91701.47;;;12.76;100.00
10484;BME280;5289;42.610;23.362;2022-07-21T03:34:46;91650.97;;;13.53;100.00
10484;BME280;5289;42.610;23.362;2022-07-21T03:37:13;91545.28;;;15.53;100.00
10484;BME280;5289;42.610;23.362;2022-07-21T03:39:40;91581.63;;;17.25;100.00
10484;BME280;5289;42.610;23.362;2022-07-21T03:42:07;91804.72;;;18.57;100.00
10484;BME280;5289;42.610;23.362;2022-07-21T03:44:33;92081.94;;;19.62;100.00
10484;BME280;5289;42.610;23.362;2022-07-21T03:47:00;92314.31;;;20.63;100.00
10484;BME280;5289;42.610;23.362;2022-07-21T03:49:28;92497.19;;;21.48;100.00
10484;BME280;5289;42.610;23.362;2022-07-21T03:51:54;92592.09;;;22.18;100.00
10484;BME280;5289;42.610;23.362;2022-07-21T03:54:21;92634.66;;;22.96;100.00
10484;BME280;5289;42.610;23.362;2022-07-21T03:56:48;92654.56;;;23.70;100.00
10484;BME280;5289;42.610;23.362;2022-07-21T03:59:15;92687.56;;;24.54;100.00
10484;BME280;5289;42.610;23.362;2022-07-21T04:01:43;92722.22;;;25.29;100.00
10484;BME280;5289;42.610;23.362;2022-07-21T04:04:09;92817.50;;;25.96;100.00
10484;BME280;5289;42.610;23.362;2022-07-21T04:06:36;93020.69;;;26.64;100.00
10484;BME280;5289;42.610;23.362;2022-07-21T04:09:03;93159.16;;;27.55;100.00
10484;BME280;5289;42.610;23.362;2022-07-21T04:11:29;93213.81;;;28.10;100.00
10484;BME280;5289;42.610;23.362;2022-07-21T04:13:58;93283.19;;;28.51;100.00
10484;BME280;5289;42.610;23.362;2022-07-21T04:16:24;93325.47;;;29.05;100.00
10484;BME280;5289;42.610;23.362;2022-07-21T04:18:52;93355.38;;;29.53;100.00
10484;BME280;5289;42.610;23.362;2022-07-21T04:21:18;93356.56;;;30.08;100.00
10484;BME280;5289;42.610;23.362;2022-07-21T04:23:45;93378.66;;;30.41;100.00
10484;BME280;5289;42.610;23.362;2022-07-21T04:26:11;93375.69;;;30.77;100.00
10484;BME280;5289;42.610;23.362;2022-07-21T04:28:38;93385.91;;;30.80;100.00
10484;BME280;5289;42.610;23.362;2022-07-21T04:31:06;93375.50;;;30.57;100.00
10484;BME280;5289;42.610;23.362;2022-07-21T04:33:32;93381.19;;;30.29;100.00
10484;BME280;5289;42.610;23.362;2022-07-21T04:35:59;93326.09;;;28.79;100.00
10484;BME280;5289;42.610;23.362;2022-07-21T04:38:25;93224.16;;;27.17;100.00
10484;BME280;5289;42.610;23.362;2022-07-21T04:40:51;93131.22;;;27.59;100.00
10484;BME280;5289;42.610;23.362;2022-07-21T04:43:18;93260.88;;;29.60;100.00
10484;BME280;5289;42.610;23.362;2022-07-21T04:45:44;93332.75;;;31.14;100.00
10484;BME280;5289;42.610;23.362;2022-07-21T04:48:12;93342.75;;;32.24;100.00
10484;BME280;5289;42.610;23.362;2022-07-21T04:50:39;93380.00;;;33.03;100.00
10484;BME280;5289;42.610;23.362;2022-07-21T04:53:05;93408.75;;;33.54;100.00
10484;BME280;5289;42.610;23.362;2022-07-21T04:55:33;93420.13;;;34.01;100.00
10484;BME280;5289;42.610;23.362;2022-07-21T04:58:00;93418.94;;;34.47;100.00
10484;BME280;5289;42.610;23.362;2022-07-21T05:00:26;93443.06;;;34.81;100.00
10484;BME280;5289;42.610;23.362;2022-07-21T05:02:54;93413.03;;;35.33;100.00
10484;BME280;5289;42.610;23.362;2022-07-21T05:05:22;93422.38;;;35.88;100.00
10484;BME280;5289;42.610;23.362;2022-07-21T05:07:49;93434.84;;;36.17;100.00
10484;BME280;5289;42.610;23.362;2022-07-21T05:10:16;93473.75;;;36.38;100.00
10484;BME280;5289;42.610;23.362;2022-07-21T05:12:42;93451.88;;;37.04;100.00
10484;BME280;5289;42.610;23.362;2022-07-21T05:15:10;93437.72;;;37.37;100.00
10484;BME280;5289;42.610;23.362;2022-07-21T05:17:37;93469.28;;;37.47;100.00
10484;BME280;5289;42.610;23.362;2022-07-21T05:20:04;93462.66;;;37.67;100.00
10484;BME280;5289;42.610;23.362;2022-07-21T05:22:32;93469.78;;;38.10;100.00
10484;BME280;5289;42.610;23.362;2022-07-21T05:24:58;93462.13;;;38.42;100.00
10484;BME280;5289;42.610;23.362;2022-07-21T05:27:25;93478.19;;;38.86;100.00
10484;BME280;5289;42.610;23.362;2022-07-21T05:29:52;93472.50;;;39.50;100.00
10484;BME280;5289;42.610;23.362;2022-07-21T05:32:18;93475.06;;;39.36;100.00
10484;BME280;5289;42.610;23.362;2022-07-21T05:34:45;93472.22;;;39.59;100.00
10484;BME280;5289;42.610;23.362;2022-07-21T05:37:11;93470.72;;;39.65;100.00
10484;BME280;5289;42.610;23.362;2022-07-21T05:39:39;93466.00;;;39.66;100.00
10484;BME280;5289;42.610;23.362;2022-07-21T05:42:06;93476.16;;;39.88;100.00
10484;BME280;5289;42.610;23.362;2022-07-21T05:44:32;93472.94;;;40.19;100.00
10484;BME280;5289;42.610;23.362;2022-07-21T05:46:59;93487.94;;;39.88;95.76
10484;BME280;5289;42.610;23.362;2022-07-21T05:49:25;93466.47;;;40.01;100.00
10484;BME280;5289;42.610;23.362;2022-07-21T05:51:52;93482.31;;;40.11;100.00
10484;BME280;5289;42.610;23.362;2022-07-21T05:54:18;93473.41;;;40.21;100.00
10484;BME280;5289;42.610;23.362;2022-07-21T05:56:46;93480.63;;;40.03;100.00
10484;BME280;5289;42.610;23.362;2022-07-21T05:59:13;93471.44;;;40.22;100.00
10484;BME280;5289;42.610;23.362;2022-07-21T06:01:39;93477.97;;;40.44;100.00
10484;BME280;5289;42.610;23.362;2022-07-21T06:04:06;93470.50;;;40.48;100.00
10484;BME280;5289;42.610;23.362;2022-07-21T06:06:32;93475.09;;;40.73;100.00
10484;BME280;5289;42.610;23.362;2022-07-21T06:08:59;93467.69;;;40.81;100.00
10484;BME280;5289;42.610;23.362;2022-07-21T06:11:25;93471.25;;;40.85;100.00
10484;BME280;5289;42.610;23.362;2022-07-21T06:13:54;93475.19;;;40.84;100.00
10484;BME280;5289;42.610;23.362;2022-07-21T06:16:20;93471.72;;;40.94;99.52
10484;BME280;5289;42.610;23.362;2022-07-21T06:18:47;93470.75;;;40.72;100.00
10484;BME280;5289;42.610;23.362;2022-07-21T06:21:13;93469.16;;;40.31;92.22
10484;BME280;5289;42.610;23.362;2022-07-21T06:23:40;93463.16;;;39.85;100.00
10484;BME280;5289;42.610;23.362;2022-07-21T06:26:06;93457.69;;;40.66;100.00
10484;BME280;5289;42.610;23.362;2022-07-21T06:28:33;93471.97;;;40.75;100.00
10484;BME280;5289;42.610;23.362;2022-07-21T06:31:01;93474.22;;;40.66;92.79
10484;BME280;5289;42.610;23.362;2022-07-21T06:33:28;93469.66;;;40.84;100.00
10484;BME280;5289;42.610;23.362;2022-07-21T06:35:54;93458.72;;;40.98;100.00
10484;BME280;5289;42.610;23.362;2022-07-21T06:38:21;93459.75;;;41.27;100.00
10484;BME280;5289;42.610;23.362;2022-07-21T06:40:49;93464.91;;;42.05;93.83
10484;BME280;5289;42.610;23.362;2022-07-21T06:43:16;93465.69;;;42.16;100.00
10484;BME280;5289;42.610;23.362;2022-07-21T06:45:42;93456.72;;;42.54;100.00
10484;BME280;5289;42.610;23.362;2022-07-21T06:48:10;93465.81;;;42.65;100.00
10484;BME280;5289;42.610;23.362;2022-07-21T06:50:37;93473.75;;;43.27;82.55
10484;BME280;5289;42.610;23.362;2022-07-21T06:53:04;93464.22;;;43.39;80.24
10484;BME280;5289;42.610;23.362;2022-07-21T06:55:31;93466.97;;;43.56;83.95
10484;BME280;5289;42.610;23.362;2022-07-21T06:57:58;93465.00;;;43.39;87.87
10484;BME280;5289;42.610;23.362;2022-07-21T07:00:34;93460.31;;;43.15;89.34
10484;BME280;5289;42.610;23.362;2022-07-21T07:03:00;93450.00;;;43.30;100.00
10484;BME280;5289;42.610;23.362;2022-07-21T07:05:28;93455.50;;;43.54;100.00
10484;BME280;5289;42.610;23.362;2022-07-21T07:07:56;93455.28;;;44.18;89.45
10484;BME280;5289;42.610;23.362;2022-07-21T07:10:22;93447.44;;;44.06;100.00
10484;BME280;5289;42.610;23.362;2022-07-21T07:12:49;93449.69;;;44.32;83.12
10484;BME280;5289;42.610;23.362;2022-07-21T07:15:15;93451.03;;;44.69;89.38
10484;BME280;5289;42.610;23.362;2022-07-21T07:17:42;93447.03;;;44.77;100.00
10484;BME280;5289;42.610;23.362;2022-07-21T07:20:09;93452.97;;;44.02;69.25
10484;BME280;5289;42.610;23.362;2022-07-21T07:22:37;93447.53;;;43.74;80.88
10484;BME280;5289;42.610;23.362;2022-07-21T07:25:04;93451.75;;;44.11;66.77
10484;BME280;5289;42.610;23.362;2022-07-21T07:27:31;93440.59;;;44.83;88.02
10484;BME280;5289;42.610;23.362;2022-07-21T07:29:57;93436.94;;;45.38;96.41
10484;BME280;5289;42.610;23.362;2022-07-21T07:32:24;93445.47;;;45.58;79.61
10484;BME280;5289;42.610;23.362;2022-07-21T07:34:50;93444.13;;;44.32;87.10
10484;BME280;5289;42.610;23.362;2022-07-21T07:37:17;93430.34;;;44.15;75.07
10484;BME280;5289;42.610;23.362;2022-07-21T07:39:45;93433.78;;;44.40;80.14
10484;BME280;5289;42.610;23.362;2022-07-21T07:42:11;93434.34;;;45.24;84.40
10484;BME280;5289;42.610;23.362;2022-07-21T07:44:38;93429.50;;;44.87;92.36
10484;BME280;5289;42.610;23.362;2022-07-21T07:47:04;93423.06;;;44.94;64.40
10484;BME280;5289;42.610;23.362;2022-07-21T07:49:31;93429.59;;;45.21;68.88
10484;BME280;5289;42.610;23.362;2022-07-21T07:51:58;93429.38;;;45.01;76.96
10484;BME280;5289;42.610;23.362;2022-07-21T07:54:24;93424.84;;;44.73;78.04
10484;BME280;5289;42.610;23.362;2022-07-21T07:56:52;93430.84;;;45.54;68.88
10484;BME280;5289;42.610;23.362;2022-07-21T07:59:19;93420.16;;;44.63;63.52
10484;BME280;5289;42.610;23.362;2022-07-21T08:01:45;93420.03;;;44.81;96.19
10484;BME280;5289;42.610;23.362;2022-07-21T08:04:12;93423.38;;;45.51;65.44
10484;BME280;5289;42.610;23.362;2022-07-21T08:06:40;93416.50;;;45.21;80.17
10484;BME280;5289;42.610;23.362;2022-07-21T08:09:07;93407.72;;;45.26;73.88
10484;BME280;5289;42.610;23.362;2022-07-21T08:11:34;93405.28;;;44.91;100.00
10484;BME280;5289;42.610;23.362;2022-07-21T08:14:02;93404.50;;;44.39;89.05
10484;BME280;5289;42.610;23.362;2022-07-21T08:16:28;93402.63;;;42.46;67.15
10484;BME280;5289;42.610;23.362;2022-07-21T08:18:55;93390.72;;;42.21;97.43
10484;BME280;5289;42.610;23.362;2022-07-21T08:21:22;93396.97;;;43.56;100.00
10484;BME280;5289;42.610;23.362;2022-07-21T08:23:54;93405.56;;;43.90;62.18
10484;BME280;5289;42.610;23.362;2022-07-21T08:26:20;93396.69;;;44.16;73.33
10484;BME280;5289;42.610;23.362;2022-07-21T08:28:47;93401.06;;;44.76;69.75
10484;BME280;5289;42.610;23.362;2022-07-21T08:31:15;93396.56;;;44.93;71.28
10484;BME280;5289;42.610;23.362;2022-07-21T08:33:42;93399.34;;;44.89;96.72
10484;BME280;5289;42.610;23.362;2022-07-21T08:36:08;93400.00;;;45.07;71.87
10484;BME280;5289;42.610;23.362;2022-07-21T08:38:36;93397.81;;;44.84;68.13
10484;BME280;5289;42.610;23.362;2022-07-21T08:41:02;93388.09;;;44.66;82.54
10484;BME280;5289;42.610;23.362;2022-07-21T08:43:29;93393.63;;;45.10;80.61
10484;BME280;5289;42.610;23.362;2022-07-21T08:45:56;93391.41;;;45.32;64.35
10484;BME280;5289;42.610;23.362;2022-07-21T08:48:24;93396.44;;;45.03;68.33
10484;BME280;5289;42.610;23.362;2022-07-21T08:50:51;93395.44;;;45.27;70.42
10484;BME280;5289;42.610;23.362;2022-07-21T08:53:18;93394.38;;;44.04;76.78
10484;BME280;5289;42.610;23.362;2022-07-21T08:55:45;93373.09;;;43.87;73.24
10484;BME280;5289;42.610;23.362;2022-07-21T08:58:12;93378.94;;;44.62;92.88
10484;BME280;5289;42.610;23.362;2022-07-21T09:00:39;93382.41;;;44.80;85.02
10484;BME280;5289;42.610;23.362;2022-07-21T09:03:10;93387.22;;;44.72;76.54
10484;BME280;5289;42.610;23.362;2022-07-21T09:05:38;93383.94;;;44.33;61.30
10484;BME280;5289;42.610;23.362;2022-07-21T09:08:05;93372.41;;;43.69;61.54
10484;BME280;5289;42.610;23.362;2022-07-21T09:10:32;93374.97;;;42.53;66.80
10484;BME280;5289;42.610;23.362;2022-07-21T09:12:59;93359.09;;;43.32;100.00
10484;BME280;5289;42.610;23.362;2022-07-21T09:15:26;93369.94;;;43.81;84.31
10484;BME280;5289;42.610;23.362;2022-07-21T09:18:03;93361.56;;;43.99;70.30
10484;BME280;5289;42.610;23.362;2022-07-21T09:20:30;93372.47;;;44.82;82.37
10484;BME280;5289;42.610;23.362;2022-07-21T09:23:05;93355.22;;;44.02;95.06
10484;BME280;5289;42.610;23.362;2022-07-21T09:25:32;93363.66;;;43.74;83.21
10484;BME280;5289;42.610;23.362;2022-07-21T09:28:05;93355.84;;;43.44;66.17
10484;BME280;5289;42.610;23.362;2022-07-21T09:30:33;93353.22;;;42.06;66.74
10484;BME280;5289;42.610;23.362;2022-07-21T09:33:17;93357.22;;;42.82;74.37
10484;BME280;5289;42.610;23.362;2022-07-21T09:35:50;93346.50;;;42.21;73.97
10484;BME280;5289;42.610;23.362;2022-07-21T09:38:18;93350.44;;;41.98;91.31
10484;BME280;5289;42.610;23.362;2022-07-21T09:40:45;93356.00;;;40.54;82.81
10484;BME280;5289;42.610;23.362;2022-07-21T09:43:12;93351.34;;;37.66;90.67
10484;BME280;5289;42.610;23.362;2022-07-21T09:45:53;93340.75;;;35.46;100.00
10484;BME280;5289;42.610;23.362;2022-07-21T09:48:30;93332.72;;;34.98;100.00
10484;BME280;5289;42.610;23.362;2022-07-21T09:50:57;93338.38;;;34.53;100.00
10484;BME280;5289;42.610;23.362;2022-07-21T09:53:24;93327.47;;;34.04;100.00
10484;BME280;5289;42.610;23.362;2022-07-21T09:55:51;93329.53;;;33.83;100.00
10484;BME280;5289;42.610;23.362;2022-07-21T09:58:19;93328.19;;;33.44;100.00
10484;BME280;5289;42.610;23.362;2022-07-21T10:00:45;93321.31;;;33.26;100.00
10484;BME280;5289;42.610;23.362;2022-07-21T10:03:12;93335.63;;;32.81;100.00
10484;BME280;5289;42.610;23.362;2022-07-21T10:05:38;93326.09;;;32.25;100.00
10484;BME280;5289;42.610;23.362;2022-07-21T10:08:05;93324.88;;;32.14;100.00
10484;BME280;5289;42.610;23.362;2022-07-21T10:10:33;93324.88;;;31.76;100.00
10484;BME280;5289;42.610;23.362;2022-07-21T10:13:00;93309.25;;;31.73;100.00
10484;BME280;5289;42.610;23.362;2022-07-21T10:15:26;93302.78;;;31.86;100.00
10484;BME280;5289;42.610;23.362;2022-07-21T10:17:53;93298.03;;;32.04;100.00
10484;BME280;5289;42.610;23.362;2022-07-21T10:20:24;93313.50;;;32.21;100.00
10484;BME280;5289;42.610;23.362;2022-07-21T10:22:56;93297.19;;;32.41;100.00
10484;BME280;5289;42.610;23.362;2022-07-21T10:25:23;93315.88;;;32.22;100.00
10484;BME280;5289;42.610;23.362;2022-07-21T10:30:37;93299.13;;;32.11;100.00
10484;BME280;5289;42.610;23.362;2022-07-21T10:33:04;93326.00;;;31.84;100.00
10484;BME280;5289;42.610;23.362;2022-07-21T10:35:31;93322.09;;;31.47;100.00
10484;BME280;5289;42.610;23.362;2022-07-21T10:37:58;93302.03;;;31.68;100.00
10484;BME280;5289;42.610;23.362;2022-07-21T10:40:37;93291.50;;;31.96;100.00
10484;BME280;5289;42.610;23.362;2022-07-21T10:45:51;93312.41;;;31.75;100.00
10484;BME280;5289;42.610;23.362;2022-07-21T10:51:03;93300.53;;;31.88;100.00
10484;BME280;5289;42.610;23.362;2022-07-21T10:53:30;93297.63;;;31.93;100.00
10484;BME280;5289;42.610;23.362;2022-07-21T10:55:56;93275.69;;;31.98;100.00
10484;BME280;5289;42.610;23.362;2022-07-21T10:58:23;93267.91;;;31.88;100.00
10484;BME280;5289;42.610;23.362;2022-07-21T11:00:52;93282.91;;;31.94;100.00
10484;BME280;5289;42.610;23.362;2022-07-21T11:03:20;93274.22;;;32.01;100.00
10484;BME280;5289;42.610;23.362;2022-07-21T11:08:33;93249.53;;;32.14;100.00
10484;BME280;5289;42.610;23.362;2022-07-21T11:11:06;93261.06;;;32.11;100.00
10484;BME280;5289;42.610;23.362;2022-07-21T11:13:56;93250.16;;;32.11;100.00
10484;BME280;5289;42.610;23.362;2022-07-21T11:16:26;93227.63;;;32.32;100.00
10484;BME280;5289;42.610;23.362;2022-07-21T11:19:26;93258.94;;;32.38;100.00
10484;BME280;5289;42.610;23.362;2022-07-21T11:21:53;93262.94;;;32.20;100.00
10484;BME280;5289;42.610;23.362;2022-07-21T11:24:19;93220.25;;;32.32;100.00
10484;BME280;5289;42.610;23.362;2022-07-21T11:26:53;93248.00;;;32.46;100.00
10484;BME280;5289;42.610;23.362;2022-07-21T11:29:19;93248.59;;;32.52;100.00
10484;BME280;5289;42.610;23.362;2022-07-21T11:31:47;93264.78;;;32.48;100.00
10484;BME280;5289;42.610;23.362;2022-07-21T11:34:14;93271.91;;;32.41;100.00
10484;BME280;5289;42.610;23.362;2022-07-21T11:36:41;93262.00;;;32.36;100.00
10484;BME280;5289;42.610;23.362;2022-07-21T11:39:08;93266.91;;;32.43;100.00
10484;BME280;5289;42.610;23.362;2022-07-21T11:41:36;93257.50;;;32.20;100.00
10484;BME280;5289;42.610;23.362;2022-07-21T11:44:03;93260.94;;;32.29;100.00
10484;BME280;5289;42.610;23.362;2022-07-21T11:46:44;93275.34;;;32.00;100.00
10484;BME280;5289;42.610;23.362;2022-07-21T11:49:12;93232.34;;;31.93;100.00
10484;BME280;5289;42.610;23.362;2022-07-21T11:51:45;93229.63;;;31.93;100.00
10484;BME280;5289;42.610;23.362;2022-07-21T11:54:18;93255.81;;;31.77;100.00
10484;BME280;5289;42.610;23.362;2022-07-21T11:56:47;93250.97;;;31.83;100.00
10484;BME280;5289;42.610;23.362;2022-07-21T11:59:13;93249.47;;;31.94;100.00
10484;BME280;5289;42.610;23.362;2022-07-21T12:01:50;93257.56;;;32.02;100.00
10484;BME280;5289;42.610;23.362;2022-07-21T12:04:31;93238.16;;;32.12;100.00
10484;BME280;5289;42.610;23.362;2022-07-21T12:06:58;93246.97;;;32.09;100.00
10484;BME280;5289;42.610;23.362;2022-07-21T12:09:25;93218.03;;;32.05;100.00
10484;BME280;5289;42.610;23.362;2022-07-21T12:11:52;93229.22;;;32.12;100.00
10484;BME280;5289;42.610;23.362;2022-07-21T12:17:31;93228.97;;;31.96;100.00
10484;BME280;5289;42.610;23.362;2022-07-21T12:20:00;93195.22;;;31.97;100.00
10484;BME280;5289;42.610;23.362;2022-07-21T12:22:36;93226.53;;;32.03;100.00
10484;BME280;5289;42.610;23.362;2022-07-21T12:25:04;93241.72;;;32.04;100.00
10484;BME280;5289;42.610;23.362;2022-07-21T12:27:33;93220.41;;;32.06;100.00
10484;BME280;5289;42.610;23.362;2022-07-21T12:30:00;93170.44;;;32.20;100.00
10484;BME280;5289;42.610;23.362;2022-07-21T12:35:25;93219.94;;;32.13;100.00
10484;BME280;5289;42.610;23.362;2022-07-21T12:37:52;93210.69;;;32.05;100.00
10484;BME280;5289;42.610;23.362;2022-07-21T12:40:19;93218.66;;;32.10;100.00
10484;BME280;5289;42.610;23.362;2022-07-21T12:42:46;93230.09;;;31.95;100.00
10484;BME280;5289;42.610;23.362;2022-07-21T12:45:13;93211.22;;;31.99;100.00
10484;BME280;5289;42.610;23.362;2022-07-21T12:47:41;93219.09;;;31.92;100.00
10484;BME280;5289;42.610;23.362;2022-07-21T12:50:08;93217.03;;;31.89;100.00
10484;BME280;5289;42.610;23.362;2022-07-21T12:52:37;93213.09;;;31.77;100.00
10484;BME280;5289;42.610;23.362;2022-07-21T12:55:03;93219.34;;;31.78;100.00
10484;BME280;5289;42.610;23.362;2022-07-21T12:57:31;93197.84;;;31.85;100.00
10484;BME280;5289;42.610;23.362;2022-07-21T12:59:59;93172.78;;;32.00;100.00
10484;BME280;5289;42.610;23.362;2022-07-21T13:02:25;93202.06;;;32.03;100.00
10484;BME280;5289;42.610;23.362;2022-07-21T13:04:54;93220.72;;;31.55;100.00
10484;BME280;5289;42.610;23.362;2022-07-21T13:07:20;93193.41;;;31.51;100.00
10484;BME280;5289;42.610;23.362;2022-07-21T13:09:48;93202.34;;;31.52;100.00
10484;BME280;5289;42.610;23.362;2022-07-21T13:12:15;93179.41;;;31.70;100.00